sensor_id;sensor_type;location;lat;lon;timestamp;P1;durP1;ratioP1;P2;durP2;ratioP2
16832;SDS011;8533;48.426;10.868;2023-04-06T00:01:10;11.53;;;7.03;;
16832;SDS011;8533;48.426;10.868;2023-04-06T00:03:37;11.30;;;7.20;;
16832;SDS011;8533;48.426;10.868;2023-04-06T00:06:05;11.13;;;6.93;;
16832;SDS011;8533;48.426;10.868;2023-04-06T00:08:32;12.33;;;7.50;;
16832;SDS011;8533;48.426;10.868;2023-04-06T00:11:00;12.30;;;6.83;;
16832;SDS011;8533;48.426;10.868;2023-04-06T00:13:27;12.73;;;7.43;;
16832;SDS011;8533;48.426;10.868;2023-04-06T00:15:55;11.70;;;7.50;;
16832;SDS011;8533;48.426;10.868;2023-04-06T00:18:22;12.63;;;7.47;;
16832;SDS011;8533;48.426;10.868;2023-04-06T00:20:50;11.60;;;7.80;;
16832;SDS011;8533;48.426;10.868;2023-04-06T00:23:17;16.50;;;7.63;;
16832;SDS011;8533;48.426;10.868;2023-04-06T00:25:45;13.17;;;7.30;;
16832;SDS011;8533;48.426;10.868;2023-04-06T00:28:13;13.13;;;7.93;;
16832;SDS011;8533;48.426;10.868;2023-04-06T00:30:41;14.47;;;7.87;;
16832;SDS011;8533;48.426;10.868;2023-04-06T00:33:08;13.97;;;7.47;;
16832;SDS011;8533;48.426;10.868;2023-04-06T00:35:36;12.63;;;6.90;;
16832;SDS011;8533;48.426;10.868;2023-04-06T00:38:04;14.30;;;7.73;;
16832;SDS011;8533;48.426;10.868;2023-04-06T00:40:31;14.23;;;7.60;;
16832;SDS011;8533;48.426;10.868;2023-04-06T00:43:00;13.43;;;7.17;;
16832;SDS011;8533;48.426;10.868;2023-04-06T00:45:28;9.60;;;7.37;;
16832;SDS011;8533;48.426;10.868;2023-04-06T00:47:55;12.17;;;7.83;;
16832;SDS011;8533;48.426;10.868;2023-04-06T00:50:23;15.13;;;7.27;;
16832;SDS011;8533;48.426;10.868;2023-04-06T00:52:50;11.17;;;7.20;;
16832;SDS011;8533;48.426;10.868;2023-04-06T00:55:18;10.00;;;6.53;;
16832;SDS011;8533;48.426;10.868;2023-04-06T00:57:45;10.40;;;7.20;;
16832;SDS011;8533;48.426;10.868;2023-04-06T01:00:14;11.50;;;6.93;;
16832;SDS011;8533;48.426;10.868;2023-04-06T01:02:42;11.10;;;7.70;;
16832;SDS011;8533;48.426;10.868;2023-04-06T01:05:11;13.30;;;7.70;;
16832;SDS011;8533;48.426;10.868;2023-04-06T01:07:38;18.33;;;7.43;;
16832;SDS011;8533;48.426;10.868;2023-04-06T01:10:06;11.70;;;7.00;;
16832;SDS011;8533;48.426;10.868;2023-04-06T01:12:34;9.23;;;6.33;;
16832;SDS011;8533;48.426;10.868;2023-04-06T01:15:03;13.67;;;7.10;;
16832;SDS011;8533;48.426;10.868;2023-04-06T01:17:31;12.57;;;7.47;;
16832;SDS011;8533;48.426;10.868;2023-04-06T01:19:59;12.17;;;7.00;;
16832;SDS011;8533;48.426;10.868;2023-04-06T01:22:26;15.53;;;7.53;;
16832;SDS011;8533;48.426;10.868;2023-04-06T01:24:54;11.20;;;7.37;;
16832;SDS011;8533;48.426;10.868;2023-04-06T01:27:22;12.80;;;7.63;;
16832;SDS011;8533;48.426;10.868;2023-04-06T01:29:51;13.13;;;7.20;;
16832;SDS011;8533;48.426;10.868;2023-04-06T01:32:18;10.93;;;6.73;;
16832;SDS011;8533;48.426;10.868;2023-04-06T01:34:46;12.90;;;7.40;;
16832;SDS011;8533;48.426;10.868;2023-04-06T01:37:13;12.73;;;7.73;;
16832;SDS011;8533;48.426;10.868;2023-04-06T01:39:42;12.33;;;7.47;;
16832;SDS011;8533;48.426;10.868;2023-04-06T01:42:10;11.17;;;6.80;;
16832;SDS011;8533;48.426;10.868;2023-04-06T01:44:37;17.37;;;7.80;;
16832;SDS011;8533;48.426;10.868;2023-04-06T01:47:04;10.80;;;7.03;;
16832;SDS011;8533;48.426;10.868;2023-04-06T01:49:32;11.90;;;7.30;;
16832;SDS011;8533;48.426;10.868;2023-04-06T01:52:00;13.37;;;7.17;;
16832;SDS011;8533;48.426;10.868;2023-04-06T01:54:27;11.43;;;7.33;;
16832;SDS011;8533;48.426;10.868;2023-04-06T01:56:54;12.70;;;7.33;;
16832;SDS011;8533;48.426;10.868;2023-04-06T01:59:22;14.97;;;7.83;;
16832;SDS011;8533;48.426;10.868;2023-04-06T02:01:50;13.77;;;7.37;;
16832;SDS011;8533;48.426;10.868;2023-04-06T02:04:17;12.77;;;7.97;;
16832;SDS011;8533;48.426;10.868;2023-04-06T02:06:44;15.47;;;7.40;;
16832;SDS011;8533;48.426;10.868;2023-04-06T02:09:12;13.50;;;8.03;;
16832;SDS011;8533;48.426;10.868;2023-04-06T02:11:40;15.93;;;9.03;;
16832;SDS011;8533;48.426;10.868;2023-04-06T02:14:08;15.07;;;8.23;;
16832;SDS011;8533;48.426;10.868;2023-04-06T02:16:35;18.67;;;8.00;;
16832;SDS011;8533;48.426;10.868;2023-04-06T02:19:03;12.63;;;7.30;;
16832;SDS011;8533;48.426;10.868;2023-04-06T02:21:30;12.63;;;7.10;;
16832;SDS011;8533;48.426;10.868;2023-04-06T02:23:57;10.50;;;6.33;;
16832;SDS011;8533;48.426;10.868;2023-04-06T02:26:25;14.47;;;7.23;;
16832;SDS011;8533;48.426;10.868;2023-04-06T02:28:52;14.63;;;7.77;;
16832;SDS011;8533;48.426;10.868;2023-04-06T02:31:20;12.90;;;8.23;;
16832;SDS011;8533;48.426;10.868;2023-04-06T02:33:47;13.07;;;7.80;;
16832;SDS011;8533;48.426;10.868;2023-04-06T02:36:15;15.43;;;7.90;;
16832;SDS011;8533;48.426;10.868;2023-04-06T02:38:42;11.73;;;7.23;;
16832;SDS011;8533;48.426;10.868;2023-04-06T02:41:10;16.23;;;7.43;;
16832;SDS011;8533;48.426;10.868;2023-04-06T02:43:37;11.73;;;7.50;;
16832;SDS011;8533;48.426;10.868;2023-04-06T02:46:05;11.87;;;7.43;;
16832;SDS011;8533;48.426;10.868;2023-04-06T02:48:32;11.57;;;7.50;;
16832;SDS011;8533;48.426;10.868;2023-04-06T02:51:01;11.97;;;7.30;;
16832;SDS011;8533;48.426;10.868;2023-04-06T02:53:29;12.43;;;7.90;;
16832;SDS011;8533;48.426;10.868;2023-04-06T02:55:56;13.60;;;7.60;;
16832;SDS011;8533;48.426;10.868;2023-04-06T02:58:23;16.73;;;7.97;;
16832;SDS011;8533;48.426;10.868;2023-04-06T03:00:51;13.20;;;7.93;;
16832;SDS011;8533;48.426;10.868;2023-04-06T03:03:18;14.50;;;8.20;;
16832;SDS011;8533;48.426;10.868;2023-04-06T03:05:46;13.77;;;8.70;;
16832;SDS011;8533;48.426;10.868;2023-04-06T03:08:14;14.87;;;9.13;;
16832;SDS011;8533;48.426;10.868;2023-04-06T03:10:41;16.30;;;8.43;;
16832;SDS011;8533;48.426;10.868;2023-04-06T03:13:09;17.83;;;8.70;;
16832;SDS011;8533;48.426;10.868;2023-04-06T03:15:36;16.60;;;8.13;;
16832;SDS011;8533;48.426;10.868;2023-04-06T03:18:03;17.37;;;9.00;;
16832;SDS011;8533;48.426;10.868;2023-04-06T03:20:31;13.57;;;8.43;;
16832;SDS011;8533;48.426;10.868;2023-04-06T03:22:58;13.60;;;8.50;;
16832;SDS011;8533;48.426;10.868;2023-04-06T03:25:26;15.50;;;8.50;;
16832;SDS011;8533;48.426;10.868;2023-04-06T03:27:55;12.47;;;8.07;;
16832;SDS011;8533;48.426;10.868;2023-04-06T03:30:23;20.30;;;8.93;;
16832;SDS011;8533;48.426;10.868;2023-04-06T03:32:52;19.83;;;10.07;;
16832;SDS011;8533;48.426;10.868;2023-04-06T03:35:19;18.33;;;9.83;;
16832;SDS011;8533;48.426;10.868;2023-04-06T03:37:46;16.97;;;9.40;;
16832;SDS011;8533;48.426;10.868;2023-04-06T03:40:14;17.13;;;9.60;;
16832;SDS011;8533;48.426;10.868;2023-04-06T03:42:42;15.20;;;9.63;;
16832;SDS011;8533;48.426;10.868;2023-04-06T03:45:09;15.57;;;10.00;;
16832;SDS011;8533;48.426;10.868;2023-04-06T03:47:38;15.17;;;9.00;;
16832;SDS011;8533;48.426;10.868;2023-04-06T03:50:06;15.00;;;8.73;;
16832;SDS011;8533;48.426;10.868;2023-04-06T03:52:34;18.80;;;9.27;;
16832;SDS011;8533;48.426;10.868;2023-04-06T03:55:02;11.43;;;8.13;;
16832;SDS011;8533;48.426;10.868;2023-04-06T03:57:29;16.60;;;9.13;;
16832;SDS011;8533;48.426;10.868;2023-04-06T03:59:57;19.70;;;9.73;;
16832;SDS011;8533;48.426;10.868;2023-04-06T04:02:25;18.87;;;9.87;;
16832;SDS011;8533;48.426;10.868;2023-04-06T04:04:52;18.77;;;11.03;;
16832;SDS011;8533;48.426;10.868;2023-04-06T04:07:20;19.87;;;10.70;;
16832;SDS011;8533;48.426;10.868;2023-04-06T04:09:47;21.20;;;10.60;;
16832;SDS011;8533;48.426;10.868;2023-04-06T04:12:15;23.60;;;10.47;;
16832;SDS011;8533;48.426;10.868;2023-04-06T04:14:42;28.30;;;11.87;;
16832;SDS011;8533;48.426;10.868;2023-04-06T04:17:09;22.30;;;10.90;;
16832;SDS011;8533;48.426;10.868;2023-04-06T04:19:37;23.27;;;11.23;;
16832;SDS011;8533;48.426;10.868;2023-04-06T04:22:04;22.97;;;11.10;;
16832;SDS011;8533;48.426;10.868;2023-04-06T04:24:32;19.57;;;9.67;;
16832;SDS011;8533;48.426;10.868;2023-04-06T04:26:59;21.33;;;10.00;;
16832;SDS011;8533;48.426;10.868;2023-04-06T04:29:27;22.13;;;10.30;;
16832;SDS011;8533;48.426;10.868;2023-04-06T04:31:54;21.87;;;9.60;;
16832;SDS011;8533;48.426;10.868;2023-04-06T04:34:22;19.40;;;9.90;;
16832;SDS011;8533;48.426;10.868;2023-04-06T04:36:53;17.73;;;9.50;;
16832;SDS011;8533;48.426;10.868;2023-04-06T04:39:21;22.33;;;10.00;;
16832;SDS011;8533;48.426;10.868;2023-04-06T04:41:48;21.63;;;10.63;;
16832;SDS011;8533;48.426;10.868;2023-04-06T04:44:15;18.23;;;9.90;;
16832;SDS011;8533;48.426;10.868;2023-04-06T04:46:43;22.17;;;10.13;;
16832;SDS011;8533;48.426;10.868;2023-04-06T04:49:10;15.63;;;9.50;;
16832;SDS011;8533;48.426;10.868;2023-04-06T04:51:38;16.33;;;9.20;;
16832;SDS011;8533;48.426;10.868;2023-04-06T04:54:05;17.73;;;9.57;;
16832;SDS011;8533;48.426;10.868;2023-04-06T04:56:33;16.93;;;8.77;;
16832;SDS011;8533;48.426;10.868;2023-04-06T04:59:00;17.83;;;9.23;;
16832;SDS011;8533;48.426;10.868;2023-04-06T05:01:28;17.77;;;9.00;;
16832;SDS011;8533;48.426;10.868;2023-04-06T05:03:55;18.97;;;8.33;;
16832;SDS011;8533;48.426;10.868;2023-04-06T05:06:22;16.37;;;9.13;;
16832;SDS011;8533;48.426;10.868;2023-04-06T05:08:51;14.77;;;9.03;;
16832;SDS011;8533;48.426;10.868;2023-04-06T05:11:18;18.07;;;9.77;;
16832;SDS011;8533;48.426;10.868;2023-04-06T05:13:46;17.90;;;9.80;;
16832;SDS011;8533;48.426;10.868;2023-04-06T05:16:14;16.07;;;9.00;;
16832;SDS011;8533;48.426;10.868;2023-04-06T05:18:41;17.30;;;8.97;;
16832;SDS011;8533;48.426;10.868;2023-04-06T05:21:09;14.73;;;8.87;;
16832;SDS011;8533;48.426;10.868;2023-04-06T05:23:38;17.63;;;10.03;;
16832;SDS011;8533;48.426;10.868;2023-04-06T05:26:05;23.10;;;10.03;;
16832;SDS011;8533;48.426;10.868;2023-04-06T05:28:33;22.40;;;10.00;;
16832;SDS011;8533;48.426;10.868;2023-04-06T05:31:01;20.63;;;9.80;;
16832;SDS011;8533;48.426;10.868;2023-04-06T05:33:29;18.93;;;10.40;;
16832;SDS011;8533;48.426;10.868;2023-04-06T05:35:57;19.03;;;10.37;;
16832;SDS011;8533;48.426;10.868;2023-04-06T05:38:26;17.87;;;9.77;;
16832;SDS011;8533;48.426;10.868;2023-04-06T05:40:53;17.83;;;10.00;;
16832;SDS011;8533;48.426;10.868;2023-04-06T05:43:21;19.00;;;9.43;;
16832;SDS011;8533;48.426;10.868;2023-04-06T05:45:48;17.13;;;9.50;;
16832;SDS011;8533;48.426;10.868;2023-04-06T05:48:16;21.90;;;9.47;;
16832;SDS011;8533;48.426;10.868;2023-04-06T05:50:47;19.13;;;10.27;;
16832;SDS011;8533;48.426;10.868;2023-04-06T05:55:46;16.63;;;9.73;;
16832;SDS011;8533;48.426;10.868;2023-04-06T05:58:14;20.00;;;10.50;;
16832;SDS011;8533;48.426;10.868;2023-04-06T06:00:42;17.10;;;9.23;;
16832;SDS011;8533;48.426;10.868;2023-04-06T06:03:12;20.57;;;10.10;;
16832;SDS011;8533;48.426;10.868;2023-04-06T06:05:40;18.00;;;9.93;;
16832;SDS011;8533;48.426;10.868;2023-04-06T06:08:08;17.90;;;8.97;;
16832;SDS011;8533;48.426;10.868;2023-04-06T06:10:35;19.80;;;9.37;;
16832;SDS011;8533;48.426;10.868;2023-04-06T06:13:05;19.03;;;9.23;;
16832;SDS011;8533;48.426;10.868;2023-04-06T06:15:33;14.27;;;9.33;;
16832;SDS011;8533;48.426;10.868;2023-04-06T06:18:01;13.80;;;8.83;;
16832;SDS011;8533;48.426;10.868;2023-04-06T06:20:29;20.23;;;9.77;;
16832;SDS011;8533;48.426;10.868;2023-04-06T06:22:56;15.10;;;8.80;;
16832;SDS011;8533;48.426;10.868;2023-04-06T06:25:24;12.70;;;8.27;;
16832;SDS011;8533;48.426;10.868;2023-04-06T06:27:52;15.90;;;9.27;;
16832;SDS011;8533;48.426;10.868;2023-04-06T06:30:20;13.00;;;7.83;;
16832;SDS011;8533;48.426;10.868;2023-04-06T06:32:47;12.37;;;8.97;;
16832;SDS011;8533;48.426;10.868;2023-04-06T06:35:15;13.57;;;7.70;;
16832;SDS011;8533;48.426;10.868;2023-04-06T06:37:42;15.20;;;9.03;;
16832;SDS011;8533;48.426;10.868;2023-04-06T06:40:10;15.43;;;9.23;;
16832;SDS011;8533;48.426;10.868;2023-04-06T06:42:38;13.13;;;7.93;;
16832;SDS011;8533;48.426;10.868;2023-04-06T06:45:06;16.27;;;7.93;;
16832;SDS011;8533;48.426;10.868;2023-04-06T06:47:35;12.30;;;7.30;;
16832;SDS011;8533;48.426;10.868;2023-04-06T06:50:02;11.37;;;7.37;;
16832;SDS011;8533;48.426;10.868;2023-04-06T06:52:30;12.43;;;7.80;;
16832;SDS011;8533;48.426;10.868;2023-04-06T06:54:57;12.90;;;7.47;;
16832;SDS011;8533;48.426;10.868;2023-04-06T06:57:25;13.60;;;7.47;;
16832;SDS011;8533;48.426;10.868;2023-04-06T06:59:53;12.57;;;7.90;;
16832;SDS011;8533;48.426;10.868;2023-04-06T07:02:21;10.87;;;7.67;;
16832;SDS011;8533;48.426;10.868;2023-04-06T07:04:48;10.23;;;7.50;;
16832;SDS011;8533;48.426;10.868;2023-04-06T07:07:17;13.13;;;8.00;;
16832;SDS011;8533;48.426;10.868;2023-04-06T07:09:44;14.77;;;8.00;;
16832;SDS011;8533;48.426;10.868;2023-04-06T07:12:11;13.87;;;7.80;;
16832;SDS011;8533;48.426;10.868;2023-04-06T07:14:39;11.40;;;7.17;;
16832;SDS011;8533;48.426;10.868;2023-04-06T07:17:06;10.73;;;6.93;;
16832;SDS011;8533;48.426;10.868;2023-04-06T07:19:35;12.93;;;7.63;;
16832;SDS011;8533;48.426;10.868;2023-04-06T07:22:04;9.23;;;6.60;;
16832;SDS011;8533;48.426;10.868;2023-04-06T07:24:31;11.00;;;6.80;;
16832;SDS011;8533;48.426;10.868;2023-04-06T07:26:59;15.00;;;7.33;;
16832;SDS011;8533;48.426;10.868;2023-04-06T07:29:29;16.60;;;7.30;;
16832;SDS011;8533;48.426;10.868;2023-04-06T07:31:56;10.70;;;6.70;;
16832;SDS011;8533;48.426;10.868;2023-04-06T07:34:24;11.00;;;7.47;;
16832;SDS011;8533;48.426;10.868;2023-04-06T07:36:52;10.97;;;6.93;;
16832;SDS011;8533;48.426;10.868;2023-04-06T07:39:20;12.27;;;7.43;;
16832;SDS011;8533;48.426;10.868;2023-04-06T07:41:47;12.30;;;8.30;;
16832;SDS011;8533;48.426;10.868;2023-04-06T07:44:15;10.17;;;7.03;;
16832;SDS011;8533;48.426;10.868;2023-04-06T07:46:42;11.10;;;7.43;;
16832;SDS011;8533;48.426;10.868;2023-04-06T07:49:10;13.37;;;7.77;;
16832;SDS011;8533;48.426;10.868;2023-04-06T07:51:38;12.77;;;6.93;;
16832;SDS011;8533;48.426;10.868;2023-04-06T07:54:06;12.80;;;6.90;;
16832;SDS011;8533;48.426;10.868;2023-04-06T07:56:33;12.03;;;6.90;;
16832;SDS011;8533;48.426;10.868;2023-04-06T07:59:01;12.77;;;6.67;;
16832;SDS011;8533;48.426;10.868;2023-04-06T08:01:29;11.90;;;7.13;;
16832;SDS011;8533;48.426;10.868;2023-04-06T08:03:57;13.43;;;7.53;;
16832;SDS011;8533;48.426;10.868;2023-04-06T08:06:26;15.87;;;6.90;;
16832;SDS011;8533;48.426;10.868;2023-04-06T08:08:54;10.50;;;6.53;;
16832;SDS011;8533;48.426;10.868;2023-04-06T08:11:22;11.00;;;7.13;;
16832;SDS011;8533;48.426;10.868;2023-04-06T08:13:50;12.33;;;7.60;;
16832;SDS011;8533;48.426;10.868;2023-04-06T08:16:18;9.83;;;6.53;;
16832;SDS011;8533;48.426;10.868;2023-04-06T08:18:45;11.33;;;7.00;;
16832;SDS011;8533;48.426;10.868;2023-04-06T08:21:13;13.73;;;7.20;;
16832;SDS011;8533;48.426;10.868;2023-04-06T08:23:40;11.53;;;6.67;;
16832;SDS011;8533;48.426;10.868;2023-04-06T08:26:09;13.80;;;6.83;;
16832;SDS011;8533;48.426;10.868;2023-04-06T08:28:36;11.77;;;7.03;;
16832;SDS011;8533;48.426;10.868;2023-04-06T08:31:04;10.13;;;6.43;;
16832;SDS011;8533;48.426;10.868;2023-04-06T08:33:33;10.67;;;6.93;;
16832;SDS011;8533;48.426;10.868;2023-04-06T08:36:08;11.87;;;7.10;;
16832;SDS011;8533;48.426;10.868;2023-04-06T08:41:09;14.17;;;7.47;;
16832;SDS011;8533;48.426;10.868;2023-04-06T08:43:46;12.90;;;6.57;;
16832;SDS011;8533;48.426;10.868;2023-04-06T08:48:44;13.73;;;6.73;;
16832;SDS011;8533;48.426;10.868;2023-04-06T08:51:15;13.37;;;7.60;;
16832;SDS011;8533;48.426;10.868;2023-04-06T08:53:43;10.70;;;5.97;;
16832;SDS011;8533;48.426;10.868;2023-04-06T08:56:11;10.83;;;6.80;;
16832;SDS011;8533;48.426;10.868;2023-04-06T08:58:40;9.83;;;6.23;;
16832;SDS011;8533;48.426;10.868;2023-04-06T09:01:08;11.43;;;6.17;;
16832;SDS011;8533;48.426;10.868;2023-04-06T09:03:39;10.00;;;6.00;;
16832;SDS011;8533;48.426;10.868;2023-04-06T09:06:08;10.53;;;6.47;;
16832;SDS011;8533;48.426;10.868;2023-04-06T09:08:38;10.50;;;6.47;;
16832;SDS011;8533;48.426;10.868;2023-04-06T09:11:07;11.90;;;6.17;;
16832;SDS011;8533;48.426;10.868;2023-04-06T09:13:49;9.60;;;5.67;;
16832;SDS011;8533;48.426;10.868;2023-04-06T09:18:42;10.57;;;6.30;;
16832;SDS011;8533;48.426;10.868;2023-04-06T09:21:09;11.37;;;6.50;;
16832;SDS011;8533;48.426;10.868;2023-04-06T09:23:38;9.27;;;5.90;;
16832;SDS011;8533;48.426;10.868;2023-04-06T09:26:10;11.70;;;6.80;;
16832;SDS011;8533;48.426;10.868;2023-04-06T09:31:13;12.33;;;6.60;;
16832;SDS011;8533;48.426;10.868;2023-04-06T09:33:43;13.37;;;6.33;;
16832;SDS011;8533;48.426;10.868;2023-04-06T09:36:12;11.73;;;5.93;;
16832;SDS011;8533;48.426;10.868;2023-04-06T09:41:27;10.50;;;6.30;;
16832;SDS011;8533;48.426;10.868;2023-04-06T09:49:04;12.13;;;6.83;;
16832;SDS011;8533;48.426;10.868;2023-04-06T09:51:36;11.93;;;6.60;;
16832;SDS011;8533;48.426;10.868;2023-04-06T09:54:06;9.13;;;6.10;;
16832;SDS011;8533;48.426;10.868;2023-04-06T09:56:43;12.23;;;6.63;;
16832;SDS011;8533;48.426;10.868;2023-04-06T09:59:08;9.97;;;6.23;;
16832;SDS011;8533;48.426;10.868;2023-04-06T10:01:36;10.00;;;6.00;;
16832;SDS011;8533;48.426;10.868;2023-04-06T10:04:12;11.07;;;6.50;;
16832;SDS011;8533;48.426;10.868;2023-04-06T10:06:55;9.50;;;5.97;;
16832;SDS011;8533;48.426;10.868;2023-04-06T10:09:24;11.00;;;6.23;;
16832;SDS011;8533;48.426;10.868;2023-04-06T10:11:56;10.43;;;6.47;;
16832;SDS011;8533;48.426;10.868;2023-04-06T10:14:25;10.67;;;6.37;;
16832;SDS011;8533;48.426;10.868;2023-04-06T10:16:53;9.33;;;5.80;;
16832;SDS011;8533;48.426;10.868;2023-04-06T10:19:22;10.93;;;6.03;;
16832;SDS011;8533;48.426;10.868;2023-04-06T10:21:54;9.97;;;6.27;;
16832;SDS011;8533;48.426;10.868;2023-04-06T10:24:24;11.47;;;6.30;;
16832;SDS011;8533;48.426;10.868;2023-04-06T10:26:58;9.10;;;6.17;;
16832;SDS011;8533;48.426;10.868;2023-04-06T10:31:54;9.30;;;5.97;;
16832;SDS011;8533;48.426;10.868;2023-04-06T10:34:21;7.73;;;5.63;;
16832;SDS011;8533;48.426;10.868;2023-04-06T10:36:49;9.57;;;5.87;;
16832;SDS011;8533;48.426;10.868;2023-04-06T10:39:23;8.93;;;6.13;;
16832;SDS011;8533;48.426;10.868;2023-04-06T10:41:46;9.30;;;5.77;;
16832;SDS011;8533;48.426;10.868;2023-04-06T10:44:22;7.43;;;5.50;;
16832;SDS011;8533;48.426;10.868;2023-04-06T10:46:54;10.83;;;6.20;;
16832;SDS011;8533;48.426;10.868;2023-04-06T10:51:53;8.37;;;5.50;;
16832;SDS011;8533;48.426;10.868;2023-04-06T10:54:23;7.87;;;5.40;;
16832;SDS011;8533;48.426;10.868;2023-04-06T10:56:53;8.10;;;6.13;;
16832;SDS011;8533;48.426;10.868;2023-04-06T10:59:22;10.43;;;6.50;;
16832;SDS011;8533;48.426;10.868;2023-04-06T11:01:50;9.33;;;6.20;;
16832;SDS011;8533;48.426;10.868;2023-04-06T11:04:19;8.80;;;5.90;;
16832;SDS011;8533;48.426;10.868;2023-04-06T11:06:49;11.57;;;6.50;;
16832;SDS011;8533;48.426;10.868;2023-04-06T11:09:38;9.00;;;6.30;;
16832;SDS011;8533;48.426;10.868;2023-04-06T11:14:26;12.20;;;6.37;;
16832;SDS011;8533;48.426;10.868;2023-04-06T11:16:53;9.77;;;6.07;;
16832;SDS011;8533;48.426;10.868;2023-04-06T11:19:21;10.37;;;6.07;;
16832;SDS011;8533;48.426;10.868;2023-04-06T11:21:48;9.97;;;6.07;;
16832;SDS011;8533;48.426;10.868;2023-04-06T11:24:23;10.23;;;6.23;;
16832;SDS011;8533;48.426;10.868;2023-04-06T11:29:29;7.50;;;5.30;;
16832;SDS011;8533;48.426;10.868;2023-04-06T11:34:32;10.37;;;6.17;;
16832;SDS011;8533;48.426;10.868;2023-04-06T11:37:07;8.20;;;5.63;;
16832;SDS011;8533;48.426;10.868;2023-04-06T11:39:48;8.93;;;6.00;;
16832;SDS011;8533;48.426;10.868;2023-04-06T11:44:49;7.63;;;5.57;;
16832;SDS011;8533;48.426;10.868;2023-04-06T11:47:18;9.43;;;5.67;;
16832;SDS011;8533;48.426;10.868;2023-04-06T11:49:47;7.77;;;5.37;;
16832;SDS011;8533;48.426;10.868;2023-04-06T11:52:16;8.47;;;5.67;;
16832;SDS011;8533;48.426;10.868;2023-04-06T11:54:45;8.17;;;5.63;;
16832;SDS011;8533;48.426;10.868;2023-04-06T11:57:16;7.47;;;5.23;;
16832;SDS011;8533;48.426;10.868;2023-04-06T11:59:44;7.13;;;5.13;;
16832;SDS011;8533;48.426;10.868;2023-04-06T12:02:12;7.73;;;5.60;;
16832;SDS011;8533;48.426;10.868;2023-04-06T12:04:39;10.20;;;5.80;;
16832;SDS011;8533;48.426;10.868;2023-04-06T12:07:07;7.53;;;5.20;;
16832;SDS011;8533;48.426;10.868;2023-04-06T12:09:34;8.80;;;5.20;;
16832;SDS011;8533;48.426;10.868;2023-04-06T12:12:03;9.47;;;6.03;;
16832;SDS011;8533;48.426;10.868;2023-04-06T12:14:31;7.70;;;5.47;;
16832;SDS011;8533;48.426;10.868;2023-04-06T12:16:58;8.10;;;5.30;;
16832;SDS011;8533;48.426;10.868;2023-04-06T12:19:25;8.10;;;5.70;;
16832;SDS011;8533;48.426;10.868;2023-04-06T12:21:53;12.80;;;6.10;;
16832;SDS011;8533;48.426;10.868;2023-04-06T12:24:23;7.57;;;5.57;;
16832;SDS011;8533;48.426;10.868;2023-04-06T12:26:50;7.73;;;5.33;;
16832;SDS011;8533;48.426;10.868;2023-04-06T12:29:18;9.33;;;6.03;;
16832;SDS011;8533;48.426;10.868;2023-04-06T12:31:45;9.90;;;6.60;;
16832;SDS011;8533;48.426;10.868;2023-04-06T12:34:13;8.50;;;5.53;;
16832;SDS011;8533;48.426;10.868;2023-04-06T12:36:40;8.67;;;5.20;;
16832;SDS011;8533;48.426;10.868;2023-04-06T12:39:08;7.80;;;5.73;;
16832;SDS011;8533;48.426;10.868;2023-04-06T12:41:36;6.40;;;5.27;;
16832;SDS011;8533;48.426;10.868;2023-04-06T12:44:06;8.60;;;5.50;;
16832;SDS011;8533;48.426;10.868;2023-04-06T12:46:34;6.47;;;5.07;;
16832;SDS011;8533;48.426;10.868;2023-04-06T12:49:01;8.50;;;5.63;;
16832;SDS011;8533;48.426;10.868;2023-04-06T12:51:29;8.50;;;5.23;;
16832;SDS011;8533;48.426;10.868;2023-04-06T12:53:59;8.23;;;5.60;;
16832;SDS011;8533;48.426;10.868;2023-04-06T12:56:27;10.17;;;5.40;;
16832;SDS011;8533;48.426;10.868;2023-04-06T12:58:55;8.53;;;5.70;;
16832;SDS011;8533;48.426;10.868;2023-04-06T13:01:22;10.23;;;5.60;;
16832;SDS011;8533;48.426;10.868;2023-04-06T13:03:51;8.10;;;5.63;;
16832;SDS011;8533;48.426;10.868;2023-04-06T13:06:20;8.87;;;5.63;;
16832;SDS011;8533;48.426;10.868;2023-04-06T13:08:47;8.70;;;5.73;;
16832;SDS011;8533;48.426;10.868;2023-04-06T13:11:15;9.73;;;6.23;;
16832;SDS011;8533;48.426;10.868;2023-04-06T13:13:44;8.93;;;5.90;;
16832;SDS011;8533;48.426;10.868;2023-04-06T13:16:17;10.07;;;5.80;;
16832;SDS011;8533;48.426;10.868;2023-04-06T13:18:41;9.80;;;6.47;;
16832;SDS011;8533;48.426;10.868;2023-04-06T13:21:08;9.87;;;5.90;;
16832;SDS011;8533;48.426;10.868;2023-04-06T13:23:36;10.40;;;6.83;;
16832;SDS011;8533;48.426;10.868;2023-04-06T13:26:04;11.43;;;6.37;;
16832;SDS011;8533;48.426;10.868;2023-04-06T13:28:34;10.77;;;6.37;;
16832;SDS011;8533;48.426;10.868;2023-04-06T13:31:04;11.43;;;6.73;;
16832;SDS011;8533;48.426;10.868;2023-04-06T13:33:32;9.40;;;6.10;;
16832;SDS011;8533;48.426;10.868;2023-04-06T13:36:00;8.70;;;6.20;;
16832;SDS011;8533;48.426;10.868;2023-04-06T13:38:27;10.80;;;6.00;;
16832;SDS011;8533;48.426;10.868;2023-04-06T13:40:56;12.17;;;7.80;;
16832;SDS011;8533;48.426;10.868;2023-04-06T13:43:23;10.20;;;6.50;;
16832;SDS011;8533;48.426;10.868;2023-04-06T13:45:52;12.70;;;6.20;;
16832;SDS011;8533;48.426;10.868;2023-04-06T13:48:23;8.77;;;5.20;;
16832;SDS011;8533;48.426;10.868;2023-04-06T13:50:51;7.97;;;5.33;;
16832;SDS011;8533;48.426;10.868;2023-04-06T13:53:19;7.93;;;5.33;;
16832;SDS011;8533;48.426;10.868;2023-04-06T13:55:53;10.70;;;4.83;;
16832;SDS011;8533;48.426;10.868;2023-04-06T14:00:47;9.93;;;5.97;;
16832;SDS011;8533;48.426;10.868;2023-04-06T14:03:15;9.13;;;5.83;;
16832;SDS011;8533;48.426;10.868;2023-04-06T14:05:42;7.63;;;5.10;;
16832;SDS011;8533;48.426;10.868;2023-04-06T14:08:11;9.17;;;5.80;;
16832;SDS011;8533;48.426;10.868;2023-04-06T14:10:38;11.70;;;6.63;;
16832;SDS011;8533;48.426;10.868;2023-04-06T14:13:07;12.63;;;6.13;;
16832;SDS011;8533;48.426;10.868;2023-04-06T14:15:34;9.60;;;5.87;;
16832;SDS011;8533;48.426;10.868;2023-04-06T14:18:03;11.20;;;6.07;;
16832;SDS011;8533;48.426;10.868;2023-04-06T14:20:33;7.93;;;5.27;;
16832;SDS011;8533;48.426;10.868;2023-04-06T14:23:01;8.40;;;5.40;;
16832;SDS011;8533;48.426;10.868;2023-04-06T14:25:29;9.20;;;5.57;;
16832;SDS011;8533;48.426;10.868;2023-04-06T14:27:57;9.93;;;6.03;;
16832;SDS011;8533;48.426;10.868;2023-04-06T14:30:24;10.73;;;5.80;;
16832;SDS011;8533;48.426;10.868;2023-04-06T14:32:53;10.10;;;5.53;;
16832;SDS011;8533;48.426;10.868;2023-04-06T14:35:25;13.77;;;6.80;;
16832;SDS011;8533;48.426;10.868;2023-04-06T14:37:53;9.90;;;6.47;;
16832;SDS011;8533;48.426;10.868;2023-04-06T14:40:22;11.43;;;6.60;;
16832;SDS011;8533;48.426;10.868;2023-04-06T14:42:51;9.83;;;5.83;;
16832;SDS011;8533;48.426;10.868;2023-04-06T14:45:18;8.13;;;5.40;;
16832;SDS011;8533;48.426;10.868;2023-04-06T14:47:47;10.57;;;5.87;;
16832;SDS011;8533;48.426;10.868;2023-04-06T14:50:14;10.57;;;5.97;;
16832;SDS011;8533;48.426;10.868;2023-04-06T14:52:42;7.40;;;4.80;;
16832;SDS011;8533;48.426;10.868;2023-04-06T14:55:11;6.20;;;4.33;;
16832;SDS011;8533;48.426;10.868;2023-04-06T14:57:39;8.53;;;5.00;;
16832;SDS011;8533;48.426;10.868;2023-04-06T15:00:07;6.13;;;4.40;;
16832;SDS011;8533;48.426;10.868;2023-04-06T15:02:36;8.93;;;4.80;;
16832;SDS011;8533;48.426;10.868;2023-04-06T15:05:04;7.33;;;4.50;;
16832;SDS011;8533;48.426;10.868;2023-04-06T15:07:31;8.43;;;4.43;;
16832;SDS011;8533;48.426;10.868;2023-04-06T15:09:59;8.17;;;4.97;;
16832;SDS011;8533;48.426;10.868;2023-04-06T15:12:26;6.63;;;4.80;;
16832;SDS011;8533;48.426;10.868;2023-04-06T15:14:54;9.77;;;4.50;;
16832;SDS011;8533;48.426;10.868;2023-04-06T15:17:22;7.73;;;5.27;;
16832;SDS011;8533;48.426;10.868;2023-04-06T15:19:52;5.93;;;4.63;;
16832;SDS011;8533;48.426;10.868;2023-04-06T15:22:20;9.23;;;5.47;;